Time;durP1;ratioP1;P1;durP2;ratioP2;P2;SDS_P1;SDS_P2;PMS_P1;PMS_P2;Temp;Humidity;BMP_temperature;BMP_pressure;BME280_temperature;BME280_humidity;BME280_pressure;Samples;Min_cycle;Max_cycle;Signal;HPM_P1;HPM_P2
2023/10/11 00:00:57;;;;;;;0.90;0.50;;;;;;;1.22;100.00;101046.36;105700;1255;74889;-49
2023/10/11 00:05:53;;;;;;;0.80;0.50;;;;;;;1.18;100.00;101040.85;104711;1257;71470;-50
2023/10/11 00:08:27;;;;;;;0.80;0.50;;;;;;;1.13;100.00;101038.48;104592;1256;61344;-49
2023/10/11 00:10:56;;;;;;;0.80;0.50;;;;;;;1.11;100.00;101037.40;104413;1260;60399;-49
2023/10/11 00:13:24;;;;;;;1.00;0.50;;;;;;;1.09;100.00;101038.29;104636;1263;73870;-51
2023/10/11 00:15:52;;;;;;;0.80;0.50;;;;;;;1.08;100.00;101034.91;104504;1256;66255;-51
2023/10/11 00:18:26;;;;;;;2.10;0.40;;;;;;;1.05;100.00;101033.80;104566;1259;72725;-50
2023/10/11 00:20:57;;;;;;;0.70;0.40;;;;;;;0.98;100.00;101033.92;105864;1257;60945;-50
2023/10/11 00:23:26;;;;;;;1.10;0.50;;;;;;;0.90;100.00;101032.41;104810;1256;60550;-50
2023/10/11 00:25:58;;;;;;;0.70;0.50;;;;;;;0.83;100.00;101036.57;104424;1257;72588;-52
2023/10/11 00:28:26;;;;;;;1.00;0.50;;;;;;;0.79;100.00;101040.23;104535;1257;67362;-50
2023/10/11 00:30:55;;;;;;;0.80;0.40;;;;;;;0.77;100.00;101040.92;104420;1261;70762;-50
2023/10/11 00:33:23;;;;;;;0.70;0.40;;;;;;;0.77;100.00;101044.27;106995;1256;60841;-50
2023/10/11 00:36:06;;;;;;;1.00;0.50;;;;;;;0.81;100.00;101045.91;104697;1260;59298;-50
2023/10/11 00:38:43;;;;;;;0.60;0.30;;;;;;;0.83;100.00;101051.24;107913;1257;73939;-50
2023/10/11 00:43:37;;;;;;;0.70;0.50;;;;;;;0.86;100.00;101057.46;101563;1292;600420;-49
2023/10/11 00:46:08;;;;;;;3.00;0.70;;;;;;;0.81;100.00;101057.23;103796;1269;59497;-51
2023/10/11 00:48:37;;;;;;;2.70;0.50;;;;;;;0.76;100.00;101061.41;103788;1269;59319;-51
2023/10/11 00:51:07;;;;;;;1.40;0.60;;;;;;;0.66;100.00;101057.76;104023;1271;72146;-48
2023/10/11 00:53:35;;;;;;;2.10;0.50;;;;;;;0.60;100.00;101056.61;105285;1272;65725;-50
2023/10/11 00:56:06;;;;;;;0.90;0.40;;;;;;;0.59;100.00;101059.79;108032;1265;191022;-50
2023/10/11 00:58:38;;;;;;;0.90;0.50;;;;;;;0.58;100.00;101056.25;108134;1264;57988;-51
2023/10/11 01:01:08;;;;;;;0.70;0.40;;;;;;;0.56;100.00;101059.91;108279;1265;60114;-50
2023/10/11 01:03:36;;;;;;;0.90;0.60;;;;;;;0.47;100.00;101059.80;108271;1265;72926;-51
2023/10/11 01:06:05;;;;;;;3.00;0.50;;;;;;;0.41;100.00;101063.07;108226;1265;65723;-51
2023/10/11 01:08:38;;;;;;;1.20;0.50;;;;;;;0.40;100.00;101062.71;108432;1265;72888;-53
2023/10/11 01:11:08;;;;;;;1.20;0.50;;;;;;;0.43;100.00;101062.39;108263;1263;61101;-52
2023/10/11 01:13:40;;;;;;;1.00;0.40;;;;;;;0.48;100.00;101066.71;108208;1266;57836;-50
2023/10/11 01:16:11;;;;;;;1.30;0.50;;;;;;;0.54;100.00;101066.77;108216;1265;73657;-50
2023/10/11 01:18:39;;;;;;;1.50;0.50;;;;;;;0.59;100.00;101074.61;108239;1264;65963;-54
2023/10/11 01:21:07;;;;;;;0.80;0.40;;;;;;;0.59;100.00;101080.11;108380;1265;73173;-51
2023/10/11 01:23:35;;;;;;;0.80;0.50;;;;;;;0.60;100.00;101083.80;108263;1265;59749;-50
2023/10/11 01:26:09;;;;;;;1.20;0.60;;;;;;;0.64;100.00;101086.34;108326;1267;60519;-49
2023/10/11 01:28:37;;;;;;;0.90;0.50;;;;;;;0.68;100.00;101087.81;108135;1269;73031;-52
2023/10/11 01:31:11;;;;;;;1.00;0.50;;;;;;;0.72;100.00;101086.28;108271;1265;65721;-50
2023/10/11 01:33:41;;;;;;;0.60;0.50;;;;;;;0.77;100.00;101085.63;108330;1266;73176;-51
2023/10/11 01:36:12;;;;;;;1.70;0.70;;;;;;;0.78;100.00;101087.92;108115;1265;59372;-50
2023/10/11 01:38:46;;;;;;;0.70;0.50;;;;;;;0.78;100.00;101085.80;108186;1265;59411;-50
2023/10/11 01:41:17;;;;;;;0.90;0.50;;;;;;;0.79;100.00;101088.64;108265;1265;73043;-50
2023/10/11 01:43:49;;;;;;;0.60;0.50;;;;;;;0.80;100.00;101089.90;108344;1263;66486;-51
2023/10/11 01:46:24;;;;;;;0.90;0.60;;;;;;;0.80;100.00;101087.25;108089;1266;73178;-49
2023/10/11 01:48:56;;;;;;;1.90;0.60;;;;;;;0.79;100.00;101089.00;106896;1269;60333;-51
2023/10/11 01:51:26;;;;;;;2.00;0.50;;;;;;;0.78;100.00;101091.82;104489;1259;60080;-47
2023/10/11 01:53:57;;;;;;;2.20;0.60;;;;;;;0.73;100.00;101094.95;104578;1263;72746;-50
2023/10/11 01:56:25;;;;;;;1.70;0.50;;;;;;;0.66;100.00;101095.20;105880;1262;67729;-51
2023/10/11 01:58:53;;;;;;;1.00;0.50;;;;;;;0.60;100.00;101093.19;108667;1259;71420;-50
2023/10/11 02:01:22;;;;;;;1.20;0.60;;;;;;;0.58;100.00;101093.00;108609;1257;59655;-50
2023/10/11 02:03:56;;;;;;;1.10;0.60;;;;;;;0.58;100.00;101094.05;106899;1258;60293;-52
2023/10/11 02:06:23;;;;;;;4.40;0.70;;;;;;;0.59;100.00;101094.59;106372;1257;72990;-49
2023/10/11 02:08:51;;;;;;;2.00;0.50;;;;;;;0.61;100.00;101093.02;104572;1262;67768;-49
2023/10/11 02:11:25;;;;;;;1.40;0.50;;;;;;;0.65;100.00;101099.25;107596;1262;71589;-48
2023/10/11 02:13:52;;;;;;;0.90;0.60;;;;;;;0.69;100.00;101105.48;104481;1259;59585;-50
2023/10/11 02:16:20;;;;;;;1.20;0.50;;;;;;;0.71;100.00;101108.51;104369;1260;60078;-51
2023/10/11 02:18:51;;;;;;;2.90;0.70;;;;;;;0.71;100.00;101113.10;104892;1259;73061;-49
2023/10/11 02:21:19;;;;;;;0.80;0.50;;;;;;;0.72;100.00;101115.95;104459;1258;65782;-49
2023/10/11 02:23:47;;;;;;;0.90;0.60;;;;;;;0.72;100.00;101118.95;105413;1260;71494;-51
2023/10/11 02:26:16;;;;;;;1.20;0.60;;;;;;;0.70;100.00;101118.91;104645;1257;59733;-49
2023/10/11 02:28:44;;;;;;;0.90;0.60;;;;;;;0.65;100.00;101118.34;104471;1264;60967;-50
2023/10/11 02:31:19;;;;;;;1.60;0.60;;;;;;;0.62;100.00;101118.65;104365;1260;73013;-49
2023/10/11 02:33:51;;;;;;;1.00;0.50;;;;;;;0.60;100.00;101120.72;104863;1262;68197;-48
2023/10/11 02:36:19;;;;;;;1.50;0.60;;;;;;;0.55;100.00;101125.62;104669;1263;71536;-49
2023/10/11 02:38:54;;;;;;;1.20;0.60;;;;;;;0.50;100.00;101124.66;105189;1262;60636;-48
2023/10/11 02:41:24;;;;;;;0.90;0.60;;;;;;;0.45;100.00;101125.65;105860;1262;59535;-50
2023/10/11 02:43:53;;;;;;;1.90;0.70;;;;;;;0.43;100.00;101127.72;104974;1259;73092;-50
2023/10/11 02:46:23;;;;;;;1.70;0.50;;;;;;;0.41;100.00;101124.00;104513;1259;65693;-49
2023/10/11 02:48:54;;;;;;;1.30;0.60;;;;;;;0.42;100.00;101125.25;104737;1263;74701;-52
2023/10/11 02:51:24;;;;;;;1.60;0.60;;;;;;;0.43;100.00;101137.60;105660;1257;59710;-46
2023/10/11 02:53:54;;;;;;;2.10;0.70;;;;;;;0.41;100.00;101137.42;104691;1262;59733;-47
2023/10/11 02:56:24;;;;;;;1.30;0.50;;;;;;;0.40;100.00;101139.52;104687;1259;73124;-49
2023/10/11 02:58:52;;;;;;;1.00;0.50;;;;;;;0.40;100.00;101140.77;105401;1260;68456;-49
2023/10/11 03:01:22;;;;;;;0.90;0.50;;;;;;;0.42;100.00;101138.15;105505;1262;72771;-49
2023/10/11 03:03:52;;;;;;;0.80;0.50;;;;;;;0.44;100.00;101140.27;105265;1260;59643;-48
2023/10/11 03:06:24;;;;;;;0.90;0.50;;;;;;;0.43;100.00;101136.03;106794;1259;59576;-50
2023/10/11 03:08:53;;;;;;;1.70;0.60;;;;;;;0.42;100.00;101139.73;104491;1262;71873;-49
2023/10/11 03:13:41;;;;;;;1.30;0.60;;;;;;;0.43;100.00;101140.64;101827;1290;601604;-50
2023/10/11 03:16:13;;;;;;;3.10;0.80;;;;;;;0.42;100.00;101129.85;104049;1266;59395;-48
2023/10/11 03:18:41;;;;;;;0.80;0.60;;;;;;;0.41;100.00;101134.24;104134;1269;59313;-49
2023/10/11 03:21:17;;;;;;;2.50;0.80;;;;;;;0.40;100.00;101133.17;107256;1266;70106;-48
2023/10/11 03:23:47;;;;;;;4.20;0.80;;;;;;;0.39;100.00;101128.03;107035;1263;68549;-49
2023/10/11 03:26:31;;;;;;;1.00;0.70;;;;;;;0.37;100.00;101128.02;104702;1266;363353;-48
2023/10/11 03:28:59;;;;;;;1.40;0.70;;;;;;;0.36;100.00;101132.39;104624;1263;59782;-48
2023/10/11 03:31:28;;;;;;;1.60;0.80;;;;;;;0.30;100.00;101135.49;103853;1262;60239;-48
2023/10/11 03:33:56;;;;;;;4.20;0.70;;;;;;;0.25;100.00;101140.35;104375;1263;71063;-50
2023/10/11 03:36:31;;;;;;;1.40;0.80;;;;;;;0.21;100.00;101144.00;104614;1266;67581;-49
2023/10/11 03:38:58;;;;;;;1.40;0.70;;;;;;;0.17;100.00;101139.52;104734;1267;72760;-48
2023/10/11 03:41:28;;;;;;;3.00;0.80;;;;;;;0.15;100.00;101134.02;104073;1267;59710;-47
2023/10/11 03:44:00;;;;;;;1.40;0.60;;;;;;;0.16;100.00;101129.63;104264;1264;60938;-49
2023/10/11 03:46:28;;;;;;;3.60;1.30;;;;;;;0.19;100.00;101133.02;104236;1263;71883;-46
2023/10/11 03:49:03;;;;;;;1.20;0.70;;;;;;;0.19;100.00;101133.38;103973;1268;66586;-48
2023/10/11 03:51:32;;;;;;;1.90;0.70;;;;;;;0.20;100.00;101134.10;104009;1265;70539;-51
2023/10/11 03:53:59;;;;;;;1.80;0.70;;;;;;;0.21;100.00;101131.11;104316;1266;61544;-48
2023/10/11 03:56:27;;;;;;;1.50;0.60;;;;;;;0.23;100.00;101130.98;104121;1263;59758;-48
2023/10/11 03:58:56;;;;;;;2.50;0.60;;;;;;;0.26;100.00;101131.53;104118;1263;75554;-48
2023/10/11 04:01:27;;;;;;;4.00;0.60;;;;;;;0.29;100.00;101134.40;107601;1263;68828;-48
2023/10/11 04:03:56;;;;;;;1.50;0.90;;;;;;;0.29;100.00;101136.70;107874;1263;74485;-49
2023/10/11 04:06:25;;;;;;;3.50;0.80;;;;;;;0.30;100.00;101140.42;108276;1263;62075;-49
2023/10/11 04:09:02;;;;;;;1.80;0.60;;;;;;;0.31;100.00;101140.44;108499;1262;60944;-48
2023/10/11 04:14:39;;;;;;;3.80;0.80;;;;;;;0.30;100.00;101140.26;108613;1260;69469;-49
2023/10/11 04:19:53;;;;;;;1.80;0.80;;;;;;;0.27;100.00;101140.91;108676;1256;62002;-48
2023/10/11 04:22:25;;;;;;;4.30;0.70;;;;;;;0.27;100.00;101138.96;108764;1256;58858;-50
2023/10/11 04:24:53;;;;;;;2.60;0.80;;;;;;;0.26;100.00;101138.77;108756;1256;75708;-51
2023/10/11 04:29:52;;;;;;;2.80;0.80;;;;;;;0.29;100.00;101144.65;108844;1257;75504;-49
2023/10/11 04:35:22;;;;;;;1.50;0.80;;;;;;;0.27;100.00;101149.56;108736;1256;58798;-49
2023/10/11 04:37:54;;;;;;;1.90;0.60;;;;;;;0.28;100.00;101158.41;108811;1255;71661;-51
2023/10/11 04:40:40;;;;;;;2.20;0.90;;;;;;;0.33;100.00;101169.25;108886;1255;67720;-49
2023/10/11 04:43:29;;;;;;;8.50;0.80;;;;;;;0.37;100.00;101165.27;108694;1256;72676;-49
2023/10/11 04:46:00;;;;;;;1.50;0.60;;;;;;;0.43;100.00;101164.98;108825;1256;62400;-50
2023/10/11 04:48:36;;;;;;;2.40;0.70;;;;;;;0.47;100.00;101166.83;105983;1261;59666;-49
2023/10/11 04:51:21;;;;;;;3.80;0.90;;;;;;;0.52;100.00;101166.36;108852;1256;71829;-50
2023/10/11 04:59:20;;;;;;;5.00;1.30;;;;;;;0.55;100.00;101165.70;104857;1257;59965;-49
2023/10/11 05:04:16;;;;;;;5.70;1.00;;;;;;;0.55;100.00;101162.17;104745;1256;71864;-48
2023/10/11 05:06:44;;;;;;;7.70;1.00;;;;;;;0.58;100.00;101157.29;108883;1256;66987;-49
2023/10/11 05:11:53;;;;;;;2.30;1.00;;;;;;;0.71;100.00;101158.52;105501;1258;59651;-50
2023/10/11 05:14:30;;;;;;;3.10;0.90;;;;;;;0.79;100.00;101160.92;107950;1256;58281;-48
2023/10/11 05:19:44;;;;;;;1.80;0.80;;;;;;;1.03;100.00;101160.89;105785;1259;68063;-51
2023/10/11 05:32:50;;;;;;;6.00;1.70;;;;;;;1.91;100.00;101172.47;104840;1256;66453;-49
2023/10/11 05:51:47;;;;;;;7.20;3.60;;;;;;;3.05;100.00;101179.14;105684;1256;59708;-47
2023/10/11 05:54:15;;;;;;;10.40;4.40;;;;;;;3.15;100.00;101179.90;104556;1262;60962;-47
2023/10/11 05:56:47;;;;;;;6.80;3.90;;;;;;;3.24;100.00;101183.83;105399;1256;71854;-47
2023/10/11 05:59:15;;;;;;;8.30;3.30;;;;;;;3.35;100.00;101184.23;104526;1256;66309;-47
2023/10/11 06:01:46;;;;;;;8.30;4.10;;;;;;;3.47;100.00;101187.11;105729;1259;71512;-47
2023/10/11 06:04:14;;;;;;;9.60;3.70;;;;;;;3.59;100.00;101191.05;104713;1256;60662;-48
2023/10/11 06:06:45;;;;;;;10.30;3.00;;;;;;;3.72;100.00;101194.10;104680;1261;59612;-47
2023/10/11 06:09:25;;;;;;;5.10;2.30;;;;;;;3.85;100.00;101194.85;104925;1256;71838;-47
2023/10/11 06:11:53;;;;;;;7.10;3.00;;;;;;;3.99;100.00;101190.79;104486;1259;67558;-47
2023/10/11 06:14:21;;;;;;;6.50;3.10;;;;;;;4.12;100.00;101192.74;106644;1259;73216;-48
2023/10/11 06:16:49;;;;;;;4.40;2.50;;;;;;;4.25;100.00;101199.86;104609;1259;59645;-47
2023/10/11 06:19:17;;;;;;;6.60;2.50;;;;;;;4.36;100.00;101201.99;104581;1257;60095;-46
2023/10/11 06:21:58;;;;;;;9.00;3.00;;;;;;;4.46;100.00;101199.33;105428;1256;73574;-48
2023/10/11 06:24:33;;;;;;;5.00;2.50;;;;;;;4.58;100.00;101198.97;107615;1257;66565;-49
2023/10/11 06:29:41;;;;;;;7.20;2.20;;;;;;;4.80;100.00;101201.42;108781;1259;59266;-49
2023/10/11 06:32:11;;;;;;;7.00;3.20;;;;;;;4.90;100.00;101204.78;104926;1259;59772;-48
2023/10/11 06:34:47;;;;;;;9.80;3.50;;;;;;;5.01;100.00;101207.08;105066;1257;71877;-48
2023/10/11 06:37:19;;;;;;;5.30;2.10;;;;;;;5.11;100.00;101211.67;104889;1259;68062;-49
2023/10/11 06:42:21;;;;;;;6.40;2.10;;;;;;;5.34;100.00;101209.27;104732;1259;60910;-49
2023/10/11 06:44:57;;;;;;;7.80;2.40;;;;;;;5.48;100.00;101204.95;104736;1256;60410;-49
2023/10/11 06:47:35;;;;;;;3.70;2.10;;;;;;;5.63;100.00;101208.62;106028;1254;72993;-48
2023/10/11 06:50:10;;;;;;;9.50;2.80;;;;;;;5.79;100.00;101212.09;108819;1257;66781;-49
2023/10/11 06:52:45;;;;;;;6.10;3.10;;;;;;;5.96;100.00;101209.35;106867;1256;71746;-48
2023/10/11 06:55:15;;;;;;;5.90;2.30;;;;;;;6.14;100.00;101205.48;107752;1259;59608;-48
2023/10/11 06:57:50;;;;;;;7.00;2.30;;;;;;;6.30;100.00;101205.19;104621;1256;61148;-48
2023/10/11 07:00:25;;;;;;;2.90;1.80;;;;;;;6.46;100.00;101209.15;104840;1260;71890;-48
2023/10/11 07:05:46;;;;;;;4.20;1.30;;;;;;;6.77;100.00;101209.05;108899;1256;71444;-49
2023/10/11 07:08:17;;;;;;;2.50;1.30;;;;;;;6.90;100.00;101215.88;108926;1256;59303;-50
2023/10/11 07:11:03;;;;;;;2.00;1.20;;;;;;;7.04;100.00;101220.73;108816;1256;58831;-49
2023/10/11 07:13:54;;;;;;;1.80;0.90;;;;;;;7.17;100.00;101222.36;108743;1256;73180;-50
2023/10/11 07:16:23;;;;;;;1.90;1.20;;;;;;;7.31;100.00;101221.67;108759;1256;66806;-49
2023/10/11 07:18:54;;;;;;;1.70;0.90;;;;;;;7.38;100.00;101224.27;108820;1256;72770;-49
2023/10/11 07:21:26;;;;;;;4.10;1.10;;;;;;;7.46;100.00;101226.15;108841;1254;61285;-48
2023/10/11 07:26:23;;;;;;;1.30;0.80;;;;;;;7.67;100.00;101226.77;108902;1257;72107;-48
2023/10/11 07:28:52;;;;;;;2.50;1.20;;;;;;;7.79;100.00;101226.24;108772;1259;67656;-49
2023/10/11 07:31:21;;;;;;;3.90;1.30;;;;;;;7.92;100.00;101224.45;108909;1256;73330;-51
2023/10/11 07:33:55;;;;;;;5.00;1.60;;;;;;;8.06;100.00;101228.91;108868;1256;61697;-49
2023/10/11 07:36:23;;;;;;;;;;;;;;;8.18;100.00;101226.77;108824;1257;60879;-49
2023/10/11 07:39:00;;;;;;;2.40;1.50;;;;;;;8.28;100.00;101226.25;108854;1256;72389;-49
2023/10/11 07:41:31;;;;;;;4.90;1.40;;;;;;;8.38;100.00;101222.71;108840;1256;68064;-49
2023/10/11 07:44:01;;;;;;;4.30;1.50;;;;;;;8.50;100.00;101225.58;107349;1259;72775;-48
2023/10/11 07:46:28;;;;;;;2.30;1.40;;;;;;;8.61;100.00;101221.10;108786;1256;59181;-48
2023/10/11 07:49:02;;;;;;;8.50;1.80;;;;;;;8.71;100.00;101220.55;106917;1256;60456;-49
2023/10/11 07:51:30;;;;;;;8.00;1.60;;;;;;;8.84;100.00;101221.05;104673;1255;73932;-50
2023/10/11 07:53:58;;;;;;;3.80;1.90;;;;;;;8.96;100.00;101225.47;104822;1261;69270;-47
2023/10/11 07:56:26;;;;;;;6.50;1.80;;;;;;;9.08;100.00;101218.45;104471;1257;72783;-49
2023/10/11 07:58:56;;;;;;;3.00;1.60;;;;;;;9.19;100.00;101215.72;104716;1256;60559;-48
2023/10/11 08:01:42;;;;;;;2.50;1.50;;;;;;;9.29;100.00;101212.50;104678;1259;60364;-49
2023/10/11 08:04:17;;;;;;;6.70;1.10;;;;;;;9.40;100.00;101213.52;104806;1256;73895;-49
2023/10/11 08:06:45;;;;;;;2.70;1.40;;;;;;;9.49;100.00;101208.31;104677;1257;66451;-48
2023/10/11 08:09:19;;;;;;;3.30;1.50;;;;;;;9.58;100.00;101210.27;104777;1259;71485;-49
2023/10/11 08:11:52;;;;;;;4.10;1.50;;;;;;;9.68;100.00;101208.81;108822;1256;60157;-49
2023/10/11 08:14:28;;;;;;;4.10;1.70;;;;;;;9.76;100.00;101205.59;106003;1257;61020;-47
2023/10/11 08:16:59;;;;;;;2.00;1.00;;;;;;;9.84;100.00;101202.17;104623;1261;73973;-46
2023/10/11 08:19:26;;;;;;;2.20;0.90;;;;;;;9.93;100.00;101200.72;104863;1262;68007;-47
2023/10/11 08:21:57;;;;;;;5.10;1.20;;;;;;;10.02;100.00;101196.56;104624;1257;72745;-47
2023/10/11 08:24:25;;;;;;;2.20;1.10;;;;;;;10.11;100.00;101197.44;106255;1257;60543;-49
2023/10/11 08:26:53;;;;;;;2.40;0.90;;;;;;;10.20;100.00;101193.83;105404;1260;60509;-49
2023/10/11 08:29:30;;;;;;;2.00;0.90;;;;;;;10.29;100.00;101191.66;106766;1259;73811;-48
2023/10/11 08:31:58;;;;;;;4.50;1.40;;;;;;;10.38;100.00;101190.36;104521;1261;66779;-47
2023/10/11 08:34:27;;;;;;;2.20;1.10;;;;;;;10.44;100.00;101188.59;104550;1259;71468;-49
2023/10/11 08:36:55;;;;;;;4.80;1.40;;;;;;;10.50;100.00;101185.02;104703;1262;60438;-46
2023/10/11 08:42:14;;;;;;;2.20;1.20;;;;;;;10.68;100.00;101190.67;104686;1256;73164;-49
2023/10/11 08:44:45;;;;;;;3.10;0.90;;;;;;;10.77;100.00;101192.97;106429;1259;67041;-51
2023/10/11 08:47:13;;;;;;;2.60;0.90;;;;;;;10.84;100.00;101195.63;104992;1262;72719;-48
2023/10/11 08:49:42;;;;;;;1.50;0.80;;;;;;;10.91;100.00;101194.73;106226;1257;60566;-49
2023/10/11 08:52:10;;;;;;;2.60;1.00;;;;;;;10.98;100.00;101196.16;104765;1257;60459;-49
2023/10/11 08:54:38;;;;;;;1.80;1.00;;;;;;;11.04;100.00;101198.88;104757;1262;73888;-48
2023/10/11 08:57:07;;;;;;;2.90;0.70;;;;;;;11.08;100.00;101200.17;107162;1257;65856;-48
2023/10/11 08:59:47;;;;;;;1.20;0.60;;;;;;;11.13;100.00;101195.40;105392;1257;70552;-46
2023/10/11 09:02:17;;;;;;;0.80;0.40;;;;;;;11.19;100.00;101191.44;104708;1262;60616;-51
2023/10/11 09:05:07;;;;;;;1.00;0.60;;;;;;;11.23;100.00;101188.42;104640;1257;61203;-49
2023/10/11 09:07:54;;;;;;;0.80;0.50;;;;;;;11.29;100.00;101182.89;105376;1259;73887;-49
2023/10/11 09:10:25;;;;;;;0.90;0.60;;;;;;;11.34;100.00;101180.57;105188;1259;67757;-49
2023/10/11 09:12:57;;;;;;;1.80;0.50;;;;;;;11.39;100.00;101180.24;104837;1260;73204;-49
2023/10/11 09:15:42;;;;;;;0.90;0.60;;;;;;;11.44;100.00;101182.81;104923;1256;61396;-49
2023/10/11 09:18:14;;;;;;;2.90;0.50;;;;;;;11.49;100.00;101184.83;104648;1257;60602;-48
2023/10/11 09:21:29;;;;;;;0.60;0.50;;;;;;;11.55;100.00;101185.73;107775;1257;73836;-49
2023/10/11 09:23:49;;;;;;;0.80;0.50;;;;;;;11.63;100.00;101185.83;105895;1259;66645;-47
2023/10/11 09:26:32;;;;;;;0.90;0.50;;;;;;;11.70;100.00;101173.58;105623;1258;71118;-49
2023/10/11 09:29:16;;;;;;;0.90;0.50;;;;;;;11.76;100.00;101171.61;105048;1257;60535;-46
2023/10/11 09:31:58;;;;;;;1.80;0.50;;;;;;;11.80;100.00;101165.60;105641;1259;60467;-48
2023/10/11 09:34:32;;;;;;;1.30;0.50;;;;;;;11.84;100.00;101163.83;104996;1262;74364;-48
2023/10/11 09:37:00;;;;;;;0.60;0.40;;;;;;;11.88;100.00;101158.87;104710;1257;67101;-50
2023/10/11 09:39:29;;;;;;;0.60;0.40;;;;;;;11.92;100.00;101159.80;105593;1260;71463;-47
2023/10/11 09:42:02;;;;;;;0.50;0.30;;;;;;;11.95;100.00;101159.70;104889;1260;60778;-49
2023/10/11 09:44:37;;;;;;;0.70;0.50;;;;;;;11.98;100.00;101143.80;107750;1257;60878;-52
2023/10/11 09:47:05;;;;;;;0.70;0.40;;;;;;;11.99;100.00;101138.70;105731;1259;73906;-47
2023/10/11 09:49:41;;;;;;;0.50;0.30;;;;;;;12.02;100.00;101135.54;104938;1256;65932;-49
2023/10/11 09:52:10;;;;;;;0.70;0.40;;;;;;;12.06;100.00;101136.52;105178;1262;71674;-49
2023/10/11 09:54:38;;;;;;;1.30;0.40;;;;;;;12.06;100.00;101134.72;104672;1262;60848;-49
2023/10/11 09:57:08;;;;;;;0.60;0.40;;;;;;;12.08;100.00;101138.77;104512;1256;60962;-49
2023/10/11 09:59:49;;;;;;;0.80;0.40;;;;;;;12.11;100.00;101132.56;105603;1256;72618;-50
2023/10/11 10:02:20;;;;;;;2.30;0.50;;;;;;;12.13;100.00;101135.73;104643;1260;67817;-49
2023/10/11 10:04:51;;;;;;;0.90;0.50;;;;;;;12.17;100.00;101126.27;108909;1253;72680;-50
2023/10/11 10:07:25;;;;;;;0.70;0.40;;;;;;;12.19;100.00;101119.34;109169;1252;60486;-50
2023/10/11 10:10:02;;;;;;;0.60;0.50;;;;;;;12.21;100.00;101115.12;109189;1256;60074;-48
2023/10/11 10:12:33;;;;;;;3.00;0.40;;;;;;;12.24;100.00;101116.66;109173;1253;72664;-52
2023/10/11 10:15:07;;;;;;;2.30;0.50;;;;;;;12.27;100.00;101111.33;109165;1252;66350;-51
2023/10/11 10:17:37;;;;;;;1.80;0.50;;;;;;;12.29;100.00;101106.57;109161;1253;73123;-52
2023/10/11 10:20:43;;;;;;;1.20;0.60;;;;;;;12.33;100.00;101109.69;106731;1255;60434;-49
2023/10/11 10:23:14;;;;;;;0.80;0.40;;;;;;;12.39;100.00;101100.13;108864;1254;59691;-50
2023/10/11 10:25:46;;;;;;;1.80;0.60;;;;;;;12.45;100.00;101102.25;108340;1254;73991;-50
2023/10/11 10:28:32;;;;;;;0.80;0.60;;;;;;;12.50;100.00;101097.77;104998;1256;65791;-49
2023/10/11 10:31:09;;;;;;;0.80;0.50;;;;;;;12.54;100.00;101095.82;109107;1253;71471;-49
2023/10/11 10:33:41;;;;;;;1.20;0.50;;;;;;;12.55;100.00;101091.63;109065;1254;60606;-50
2023/10/11 10:36:17;;;;;;;2.30;0.60;;;;;;;12.58;100.00;101081.09;109138;1254;60080;-51
2023/10/11 10:38:58;;;;;;;6.80;0.60;;;;;;;12.60;100.00;101079.75;109077;1256;71617;-50
2023/10/11 10:41:32;;;;;;;0.60;0.40;;;;;;;12.61;100.00;101076.13;109099;1257;67024;-50
2023/10/11 10:44:06;;;;;;;1.60;0.50;;;;;;;12.62;100.00;101071.94;108893;1258;73286;-50
2023/10/11 10:46:35;;;;;;;0.50;0.40;;;;;;;12.63;100.00;101066.48;109192;1255;58857;-49
2023/10/11 10:49:03;;;;;;;1.20;0.50;;;;;;;12.68;100.00;101059.30;107017;1256;59829;-49
2023/10/11 10:51:37;;;;;;;0.60;0.40;;;;;;;12.71;100.00;101052.50;104738;1259;72828;-48
2023/10/11 10:54:12;;;;;;;0.70;0.50;;;;;;;12.75;100.00;101056.54;109131;1252;68031;-52
2023/10/11 10:56:41;;;;;;;1.70;0.50;;;;;;;12.79;100.00;101047.70;109157;1257;72423;-50
2023/10/11 10:59:15;;;;;;;1.90;0.50;;;;;;;12.82;100.00;101035.89;109074;1253;60282;-52
2023/10/11 11:01:46;;;;;;;0.70;0.50;;;;;;;12.85;100.00;101037.92;105477;1257;60683;-51
2023/10/11 11:04:20;;;;;;;0.70;0.40;;;;;;;12.88;100.00;101027.91;105064;1254;72616;-52
2023/10/11 11:06:49;;;;;;;1.00;0.50;;;;;;;12.91;100.00;101030.36;105274;1254;65012;-48
2023/10/11 11:09:25;;;;;;;0.90;0.40;;;;;;;12.91;100.00;101023.88;104921;1256;71458;-49
2023/10/11 11:12:03;;;;;;;1.90;0.40;;;;;;;12.91;100.00;101029.09;104806;1255;60508;-51
2023/10/11 11:14:30;;;;;;;0.70;0.50;;;;;;;12.92;100.00;101020.77;107782;1257;60904;-50
2023/10/11 11:16:59;;;;;;;0.80;0.50;;;;;;;12.94;100.00;101016.36;104843;1256;75480;-50
2023/10/11 11:19:26;;;;;;;1.70;0.60;;;;;;;12.97;100.00;101015.52;105173;1254;66789;-48
2023/10/11 11:22:15;;;;;;;0.70;0.40;;;;;;;13.00;100.00;101009.83;104914;1257;73331;-48
2023/10/11 11:24:43;;;;;;;0.60;0.40;;;;;;;13.04;100.00;101006.77;105059;1257;60917;-49
2023/10/11 11:27:27;;;;;;;2.60;0.50;;;;;;;13.08;100.00;101004.28;105447;1259;60470;-49
2023/10/11 11:29:55;;;;;;;1.00;0.60;;;;;;;13.12;100.00;101006.45;105566;1259;72725;-49
2023/10/11 11:32:38;;;;;;;2.50;0.50;;;;;;;13.13;100.00;101012.74;105474;1261;65707;-53
2023/10/11 11:35:10;;;;;;;0.80;0.60;;;;;;;13.14;100.00;101004.64;104971;1257;73086;-48
2023/10/11 11:37:39;;;;;;;1.10;0.30;;;;;;;13.13;100.00;101006.98;104797;1257;61159;-49
2023/10/11 11:40:24;;;;;;;0.80;0.50;;;;;;;13.15;100.00;101011.24;104956;1255;60790;-51
2023/10/11 11:42:51;;;;;;;0.80;0.40;;;;;;;13.17;100.00;101016.23;106218;1256;73802;-50
2023/10/11 11:45:35;;;;;;;1.30;0.40;;;;;;;13.17;100.00;101017.48;105079;1257;65836;-51
2023/10/11 11:48:05;;;;;;;1.00;0.40;;;;;;;13.16;100.00;101019.32;105955;1256;71462;-50
2023/10/11 11:50:33;;;;;;;0.70;0.40;;;;;;;13.14;100.00;101021.73;106221;1257;60527;-49
2023/10/11 11:53:01;;;;;;;1.70;0.60;;;;;;;13.13;100.00;101024.45;106606;1251;60724;-52
2023/10/11 11:55:28;;;;;;;3.40;0.30;;;;;;;13.09;100.00;101021.91;105202;1256;72679;-50
2023/10/11 11:57:56;;;;;;;0.60;0.40;;;;;;;13.06;100.00;101025.80;105127;1256;66867;-49
2023/10/11 12:02:52;;;;;;;1.40;0.60;;;;;;;13.00;100.00;101010.73;105249;1257;60681;-52
2023/10/11 12:05:20;;;;;;;1.70;0.50;;;;;;;12.99;100.00;101012.38;105179;1256;61932;-48
2023/10/11 12:07:51;;;;;;;2.90;0.50;;;;;;;12.98;100.00;101010.44;106304;1253;74708;-50
2023/10/11 12:10:25;;;;;;;2.80;0.50;;;;;;;12.98;100.00;101007.39;104818;1256;66880;-51
2023/10/11 12:12:53;;;;;;;0.90;0.50;;;;;;;12.98;100.00;101006.67;105238;1257;72575;-49
2023/10/11 12:15:20;;;;;;;3.00;0.50;;;;;;;12.97;100.00;101003.09;105069;1257;60576;-48
2023/10/11 12:17:53;;;;;;;1.10;0.40;;;;;;;12.97;100.00;101007.78;105074;1257;60447;-52
2023/10/11 12:20:33;;;;;;;1.30;0.50;;;;;;;12.97;100.00;101003.29;105330;1255;73844;-50
2023/10/11 12:23:08;;;;;;;1.00;0.50;;;;;;;12.96;100.00;101000.25;104933;1252;65786;-51
2023/10/11 12:25:36;;;;;;;3.90;0.60;;;;;;;12.97;100.00;100996.96;105292;1259;72175;-51
2023/10/11 12:28:05;;;;;;;3.60;0.80;;;;;;;12.97;100.00;100997.14;105026;1259;62256;-50
2023/10/11 12:30:36;;;;;;;1.40;0.60;;;;;;;12.98;100.00;100991.15;104996;1254;60450;-50
2023/10/11 12:33:07;;;;;;;0.90;0.50;;;;;;;12.98;100.00;100983.04;105597;1259;72669;-50
2023/10/11 12:35:41;;;;;;;3.00;0.70;;;;;;;12.98;100.00;100980.17;104938;1257;64660;-50
2023/10/11 12:38:12;;;;;;;2.70;0.80;;;;;;;12.97;100.00;100984.34;105080;1257;72706;-50
2023/10/11 12:40:40;;;;;;;2.20;0.80;;;;;;;12.96;100.00;100982.95;104956;1260;60559;-50
2023/10/11 12:43:07;;;;;;;7.60;0.80;;;;;;;12.95;100.00;100984.58;105212;1257;60547;-50
2023/10/11 12:45:35;;;;;;;1.70;0.60;;;;;;;12.95;100.00;100976.85;105003;1256;72379;-50
2023/10/11 12:48:06;;;;;;;4.60;0.70;;;;;;;12.94;100.00;100970.40;105639;1254;65852;-51
2023/10/11 12:50:37;;;;;;;6.10;0.80;;;;;;;12.92;100.00;100960.59;104866;1256;72736;-51